Tampa, Florida
Traffic Map
Current Weather Conditions
Tampa, Florida
Clear
Clear
14°
Feels Like: 14°
Wind Chill: 14° Ceiling: Unl
Heat Index: 14° Visibility: 10mi
Dew Point: 11° Wind: 6mph
Humidity: 81% Direction: ° ()
Pressure: 30.24in Gusts: 0mph
Raw Report DataKTPA 110953Z VRB05KT 10SM CLR 14/11 A3024 RMK AO2 SLP241 T01390106
Traffic Incident Summary
Active as of:
Severity:
Category:
InformationThere was an issue retrieving the traffic information for this location. Please try a different location or try again shortly.
Advertisements
Track Severe Weather on mobile